Terminal Aerodrome Forecast
Issued by NWS

Home | Current Version | Previous Version | Text Only | Print | Product List | Glossary On
Versions: 1 2 3 4 5 6 7 8 9 10 11 12 13 14 15
000
FTUS41 KBOX 260213 AAA
TAFBAF
TAF AMD
KBAF 260213Z 2602/2624 00000KT 6SM -SHRA BKN005 OVC010
     FM260500 VRB03KT 1/2SM FG VCSH OVC003
     FM260700 VRB03KT 3/4SM BR VCSH OVC003
     FM261100 28004KT 2SM BR BKN060
     FM261400 28008KT P6SM SCT080
     FM261800 27012KT P6SM BKN040
     FM261900 27012G22KT P6SM BKN040
     FM262300 28011KT P6SM BKN035=

USA.gov is the U.S. government's official web portal to all federal, state and local government web resources and services.